createdAt,value
2018-05-31T00:00:45.964Z,17.10
2018-05-31T00:01:45.991Z,17.40
2018-05-31T00:02:46.080Z,14.60
2018-05-31T00:03:46.022Z,22.40
2018-05-31T00:04:46.035Z,21.20
2018-05-31T00:05:46.046Z,17.70
2018-05-31T00:06:46.030Z,13.80
2018-05-31T00:07:46.148Z,21.10
2018-05-31T00:08:46.083Z,19.30
2018-05-31T00:09:46.095Z,17.40
2018-05-31T00:10:46.113Z,18.50
2018-05-31T00:11:46.114Z,17.80
2018-05-31T00:12:46.121Z,21.50
2018-05-31T00:13:46.122Z,23.70
2018-05-31T00:14:46.137Z,18.60
2018-05-31T00:15:46.148Z,20.00
2018-05-31T00:16:46.164Z,15.60
2018-05-31T00:17:46.277Z,14.90
2018-05-31T00:18:46.187Z,14.80
2018-05-31T00:19:46.225Z,17.20
2018-05-31T00:20:46.240Z,18.80
2018-05-31T00:21:46.224Z,15.80
2018-05-31T00:22:46.353Z,21.40
2018-05-31T00:23:46.257Z,17.80
2018-05-31T00:24:46.266Z,17.50
2018-05-31T00:25:46.304Z,17.70
2018-05-31T00:26:46.317Z,17.40
2018-05-31T00:27:46.305Z,16.00
2018-05-31T00:28:46.343Z,17.00
2018-05-31T00:29:46.327Z,16.20
2018-05-31T00:30:46.353Z,18.20
2018-05-31T00:31:46.362Z,18.60
2018-05-31T00:32:46.469Z,20.90
2018-05-31T00:33:46.404Z,20.70
2018-05-31T00:34:46.403Z,16.60
2018-05-31T00:35:46.407Z,20.20
2018-05-31T00:36:46.443Z,19.20
2018-05-31T00:37:46.427Z,20.10
2018-05-31T00:38:46.451Z,19.10
2018-05-31T00:39:46.457Z,20.50
2018-05-31T00:40:46.498Z,20.30
2018-05-31T00:41:46.482Z,23.20
2018-05-31T00:42:46.495Z,23.00
2018-05-31T00:43:46.504Z,20.40
2018-05-31T00:44:46.529Z,23.60
2018-05-31T00:45:46.533Z,22.20
2018-05-31T00:46:46.567Z,22.70
2018-05-31T00:47:46.652Z,22.30
2018-05-31T00:48:46.568Z,18.10
2018-05-31T00:49:46.607Z,21.80
2018-05-31T00:50:46.606Z,23.80
2018-05-31T00:51:46.604Z,27.70
2018-05-31T00:52:46.646Z,22.90
2018-05-31T00:53:46.658Z,22.90
2018-05-31T00:54:46.642Z,25.70
2018-05-31T00:55:46.669Z,24.20
2018-05-31T00:56:46.697Z,25.40
2018-05-31T00:57:46.706Z,22.70
2018-05-31T00:58:46.693Z,25.30
2018-05-31T00:59:46.705Z,21.60
2018-05-31T01:00:46.744Z,23.90
2018-05-31T01:01:46.762Z,22.20
2018-05-31T01:02:46.769Z,23.20
2018-05-31T01:03:46.755Z,21.10
2018-05-31T01:04:46.765Z,22.40
2018-05-31T01:05:46.797Z,25.90
2018-05-31T01:06:46.792Z,24.20
2018-05-31T01:07:46.831Z,22.50
2018-05-31T01:08:46.818Z,24.60
2018-05-31T01:09:46.857Z,24.20
2018-05-31T01:10:46.837Z,24.90
2018-05-31T01:11:46.851Z,26.10
2018-05-31T01:12:46.866Z,24.00
2018-05-31T01:13:46.880Z,25.60
2018-05-31T01:14:46.893Z,26.50
2018-05-31T01:15:46.906Z,24.40
2018-05-31T01:16:46.925Z,33.60
2018-05-31T01:17:47.041Z,28.20
2018-05-31T01:18:46.943Z,30.60
2018-05-31T01:19:46.952Z,30.80
2018-05-31T01:20:46.966Z,29.40
2018-05-31T01:21:46.979Z,32.50
2018-05-31T01:22:46.990Z,29.70
2018-05-31T01:23:47.003Z,35.70
2018-05-31T01:24:47.018Z,32.20
2018-05-31T01:25:47.024Z,34.10
2018-05-31T01:26:47.067Z,38.30
2018-05-31T01:27:47.165Z,42.10
2018-05-31T01:28:47.068Z,41.30
2018-05-31T01:29:47.076Z,43.80
2018-05-31T01:30:47.088Z,53.80
2018-05-31T01:31:47.130Z,57.60
2018-05-31T01:32:47.217Z,54.20
2018-05-31T01:33:47.151Z,60.80
2018-05-31T01:34:47.154Z,57.80
2018-05-31T01:35:47.178Z,58.70
2018-05-31T01:36:47.177Z,51.80
2018-05-31T01:37:47.175Z,57.20
2018-05-31T01:38:47.216Z,55.80
2018-05-31T01:39:47.203Z,56.70
2018-05-31T01:40:47.216Z,54.50
2018-05-31T01:41:47.252Z,55.40
2018-05-31T01:42:47.265Z,61.80
2018-05-31T01:43:47.250Z,53.70
2018-05-31T01:44:47.264Z,58.20
2018-05-31T01:45:47.275Z,56.70
2018-05-31T01:46:47.298Z,51.50
2018-05-31T01:47:47.476Z,56.50
2018-05-31T01:48:47.318Z,55.20
2018-05-31T01:49:47.323Z,48.20
2018-05-31T01:50:47.363Z,48.40
2018-05-31T01:51:47.377Z,51.20
2018-05-31T01:52:47.390Z,53.00
2018-05-31T01:53:47.397Z,50.30
2018-05-31T01:54:47.380Z,50.70
2018-05-31T01:55:47.392Z,52.00
2018-05-31T01:56:47.412Z,46.80
2018-05-31T01:57:47.438Z,47.50
2018-05-31T01:58:47.464Z,48.50
2018-05-31T01:59:47.446Z,47.80
2018-05-31T02:00:47.491Z,48.40
2018-05-31T02:01:47.500Z,50.30
2018-05-31T02:02:47.483Z,53.60
2018-05-31T02:03:47.498Z,47.60
2018-05-31T02:04:47.536Z,45.90
2018-05-31T02:05:47.521Z,47.30
2018-05-31T02:06:47.533Z,47.40
2018-05-31T02:07:47.572Z,50.70
2018-05-31T02:08:47.586Z,44.00
2018-05-31T02:09:47.595Z,44.70
2018-05-31T02:10:47.584Z,42.20
2018-05-31T02:11:47.679Z,40.50
2018-05-31T02:12:47.662Z,45.70
2018-05-31T02:13:47.701Z,44.00
2018-05-31T02:14:47.693Z,47.10
2018-05-31T02:15:47.728Z,50.80
2018-05-31T02:16:47.739Z,46.60
2018-05-31T02:17:47.874Z,51.90
2018-05-31T02:18:47.739Z,50.40
2018-05-31T02:19:47.749Z,52.00
2018-05-31T02:20:47.781Z,54.70
2018-05-31T02:21:47.717Z,52.70
2018-05-31T02:22:47.828Z,48.80
2018-05-31T02:23:47.745Z,49.50
2018-05-31T02:24:47.784Z,47.40
2018-05-31T02:25:47.769Z,43.70
2018-05-31T02:26:47.782Z,52.90
2018-05-31T02:27:47.958Z,50.40
2018-05-31T02:28:47.832Z,47.40
2018-05-31T02:29:47.815Z,45.90
2018-05-31T02:30:47.854Z,45.30
2018-05-31T02:31:47.867Z,49.90
2018-05-31T02:32:47.857Z,45.80
2018-05-31T02:33:47.870Z,50.60
2018-05-31T02:34:47.908Z,45.20
2018-05-31T02:35:47.890Z,49.40
2018-05-31T02:36:47.908Z,50.10
2018-05-31T02:37:47.941Z,47.00
2018-05-31T02:38:47.925Z,50.30
2018-05-31T02:39:47.950Z,53.90
2018-05-31T02:40:47.979Z,51.40
2018-05-31T02:41:47.966Z,52.70
2018-05-31T02:42:47.977Z,50.30
2018-05-31T02:43:48.136Z,49.20
2018-05-31T02:44:48.000Z,50.50
2018-05-31T02:45:48.014Z,50.20
2018-05-31T02:46:48.049Z,49.70
2018-05-31T02:47:48.038Z,47.10
2018-05-31T02:48:48.203Z,46.40
2018-05-31T02:49:48.058Z,50.80
2018-05-31T02:50:48.101Z,47.50
2018-05-31T02:51:48.085Z,53.40
2018-05-31T02:52:48.101Z,51.00
2018-05-31T02:53:48.109Z,46.20
2018-05-31T02:54:48.120Z,48.20
2018-05-31T02:55:48.134Z,51.50
2018-05-31T02:56:48.172Z,48.70
2018-05-31T02:57:48.152Z,51.60
2018-05-31T02:58:48.335Z,51.80
2018-05-31T02:59:48.186Z,52.90
2018-05-31T03:00:48.223Z,58.30
2018-05-31T03:01:48.207Z,51.10
2018-05-31T03:02:48.222Z,52.50
2018-05-31T03:03:48.233Z,52.40
2018-05-31T03:04:48.254Z,54.50
2018-05-31T03:05:48.280Z,59.60
2018-05-31T03:06:48.293Z,65.40
2018-05-31T03:07:48.322Z,64.30
2018-05-31T03:08:48.443Z,55.10
2018-05-31T03:09:48.329Z,54.10
2018-05-31T03:10:48.346Z,63.40
2018-05-31T03:11:48.358Z,58.70
2018-05-31T03:12:48.366Z,53.10
2018-05-31T03:13:48.528Z,46.00
2018-05-31T03:14:48.372Z,51.00
2018-05-31T03:15:48.389Z,47.60
2018-05-31T03:16:48.389Z,45.50
2018-05-31T03:17:48.404Z,48.60
2018-05-31T03:18:48.591Z,52.00
2018-05-31T03:19:48.429Z,46.30
2018-05-31T03:20:48.449Z,49.80
2018-05-31T03:21:48.443Z,48.60
2018-05-31T03:22:48.463Z,51.50
2018-05-31T03:23:48.475Z,53.20
2018-05-31T03:24:48.498Z,53.50
2018-05-31T03:25:48.512Z,50.40
2018-05-31T03:26:48.509Z,56.80
2018-05-31T03:27:48.524Z,52.60
2018-05-31T03:28:48.712Z,56.40
2018-05-31T03:29:48.570Z,55.10
2018-05-31T03:30:48.568Z,59.10
2018-05-31T03:31:48.573Z,53.60
2018-05-31T03:32:48.583Z,56.20
2018-05-31T03:33:48.593Z,58.80
2018-05-31T03:34:48.603Z,57.00
2018-05-31T03:35:48.617Z,57.00
2018-05-31T03:36:48.658Z,58.00
2018-05-31T03:37:48.640Z,57.20
2018-05-31T03:38:48.652Z,59.40
2018-05-31T03:39:48.673Z,63.00
2018-05-31T03:40:48.700Z,54.80
2018-05-31T03:41:48.687Z,60.80
2018-05-31T03:42:48.697Z,58.30
2018-05-31T03:43:48.711Z,59.80
2018-05-31T03:44:48.735Z,58.40
2018-05-31T03:45:48.760Z,59.60
2018-05-31T03:46:48.743Z,59.70
2018-05-31T03:47:48.753Z,58.80
2018-05-31T03:48:48.767Z,61.20
2018-05-31T03:49:48.780Z,59.20
2018-05-31T03:50:48.818Z,67.90
2018-05-31T03:51:48.802Z,66.10
2018-05-31T03:52:48.839Z,67.30
2018-05-31T03:53:49.003Z,69.00
2018-05-31T03:54:48.864Z,76.00
2018-05-31T03:55:48.850Z,72.60
2018-05-31T03:56:48.872Z,75.10
2018-05-31T03:57:48.870Z,68.90
2018-05-31T03:58:48.908Z,71.20
2018-05-31T03:59:48.896Z,67.60
2018-05-31T04:00:48.931Z,77.70
2018-05-31T04:01:48.930Z,73.30
2018-05-31T04:02:48.928Z,72.80
2018-05-31T04:03:48.970Z,78.40
2018-05-31T04:04:48.980Z,75.00
2018-05-31T04:05:48.989Z,74.10
2018-05-31T04:06:48.975Z,74.20
2018-05-31T04:07:49.015Z,71.20
2018-05-31T04:08:48.998Z,70.50
2018-05-31T04:09:49.187Z,61.80
2018-05-31T04:10:49.051Z,63.60
2018-05-31T04:11:49.062Z,70.30
2018-05-31T04:12:49.072Z,69.20
2018-05-31T04:13:49.081Z,66.10
2018-05-31T04:14:49.255Z,68.80
2018-05-31T04:15:49.108Z,65.80
2018-05-31T04:16:49.096Z,68.70
2018-05-31T04:17:49.185Z,63.30
2018-05-31T04:18:49.169Z,68.70
2018-05-31T04:19:49.206Z,69.50
2018-05-31T04:20:49.196Z,70.60
2018-05-31T04:21:49.161Z,71.00
2018-05-31T04:22:49.145Z,77.80
2018-05-31T04:23:49.159Z,81.90
2018-05-31T04:24:49.317Z,67.10
2018-05-31T04:25:49.181Z,63.60
2018-05-31T04:26:49.259Z,71.10
2018-05-31T04:27:49.242Z,75.90
2018-05-31T04:28:49.243Z,67.70
2018-05-31T04:29:49.421Z,75.40
2018-05-31T04:30:49.265Z,69.90
2018-05-31T04:31:49.273Z,75.80
2018-05-31T04:32:49.269Z,72.20
2018-05-31T04:33:49.273Z,74.10
2018-05-31T04:34:49.431Z,73.10
2018-05-31T04:35:49.301Z,74.60
2018-05-31T04:36:49.363Z,78.80
2018-05-31T04:37:49.344Z,75.50
2018-05-31T04:38:49.340Z,70.70
2018-05-31T04:39:49.514Z,72.70
2018-05-31T04:40:49.353Z,79.80
2018-05-31T04:41:49.399Z,76.90
2018-05-31T04:42:49.400Z,73.40
2018-05-31T04:43:49.386Z,68.80
2018-05-31T04:44:49.613Z,74.80
2018-05-31T04:45:49.405Z,75.80
2018-05-31T04:46:49.418Z,72.40
2018-05-31T04:47:49.439Z,70.40
2018-05-31T04:48:49.441Z,69.60
2018-05-31T04:49:49.602Z,70.50
2018-05-31T04:50:49.511Z,69.00
2018-05-31T04:51:49.473Z,73.40
2018-05-31T04:52:49.492Z,71.10
2018-05-31T04:53:49.496Z,69.00
2018-05-31T04:54:49.517Z,71.70
2018-05-31T04:55:49.525Z,73.60
2018-05-31T04:56:49.574Z,72.70
2018-05-31T04:57:49.557Z,74.50
2018-05-31T04:58:49.565Z,76.20
2018-05-31T04:59:49.713Z,69.70
2018-05-31T05:00:49.618Z,72.10
2018-05-31T05:01:49.592Z,67.50
2018-05-31T05:02:49.607Z,64.90
2018-05-31T05:03:49.632Z,69.40
2018-05-31T05:04:49.643Z,63.70
2018-05-31T05:05:49.654Z,75.20
2018-05-31T05:06:49.708Z,68.40
2018-05-31T05:07:49.691Z,74.50
2018-05-31T05:08:49.733Z,71.00
2018-05-31T05:09:49.894Z,74.70
2018-05-31T05:10:49.688Z,71.50
2018-05-31T05:11:49.698Z,72.30
2018-05-31T05:12:49.749Z,70.90
2018-05-31T05:13:49.785Z,69.10
2018-05-31T05:14:49.754Z,67.80
2018-05-31T05:15:49.766Z,68.00
2018-05-31T05:16:49.757Z,73.50
2018-05-31T05:17:49.819Z,74.50
2018-05-31T05:18:49.824Z,65.00
2018-05-31T05:19:49.977Z,71.90
2018-05-31T05:20:49.798Z,74.50
2018-05-31T05:21:49.847Z,74.30
2018-05-31T05:22:49.834Z,75.00
2018-05-31T05:23:49.854Z,75.40
2018-05-31T05:24:49.838Z,72.60
2018-05-31T05:25:49.893Z,79.20
2018-05-31T05:26:49.859Z,71.60
2018-05-31T05:27:49.942Z,68.60
2018-05-31T05:28:49.885Z,68.20
2018-05-31T05:29:49.904Z,72.50
2018-05-31T05:30:50.098Z,70.30
2018-05-31T05:31:49.917Z,69.90
2018-05-31T05:32:49.954Z,68.40
2018-05-31T05:33:50.008Z,67.60
2018-05-31T05:34:49.975Z,73.30
2018-05-31T05:35:49.962Z,71.20
2018-05-31T05:36:50.002Z,79.80
2018-05-31T05:37:49.982Z,84.40
2018-05-31T05:38:50.053Z,78.00
2018-05-31T05:39:50.013Z,80.40
2018-05-31T05:40:50.193Z,80.90
2018-05-31T05:41:50.039Z,73.10
2018-05-31T05:42:50.040Z,71.00
2018-05-31T05:43:50.092Z,76.70
2018-05-31T05:44:50.114Z,73.10
2018-05-31T05:45:50.221Z,81.20
2018-05-31T05:46:50.082Z,73.00
2018-05-31T05:47:50.135Z,73.80
2018-05-31T05:48:50.109Z,76.10
2018-05-31T05:49:50.118Z,79.00
2018-05-31T05:50:50.197Z,84.30
2018-05-31T05:51:50.136Z,79.00
2018-05-31T05:52:50.151Z,77.10
2018-05-31T05:53:50.201Z,76.90
2018-05-31T05:54:50.240Z,73.40
2018-05-31T05:55:50.335Z,72.40
2018-05-31T05:56:50.194Z,77.80
2018-05-31T05:57:50.213Z,89.10
2018-05-31T05:58:50.227Z,88.60
2018-05-31T05:59:50.240Z,97.10
2018-05-31T06:00:50.436Z,87.80
2018-05-31T06:01:50.352Z,93.00
2018-05-31T06:02:50.254Z,88.50
2018-05-31T06:03:50.266Z,91.50
2018-05-31T06:04:50.292Z,91.50
2018-05-31T06:05:50.290Z,93.00
2018-05-31T06:06:50.326Z,100.10
2018-05-31T06:07:50.383Z,95.20
2018-05-31T06:08:50.327Z,85.80
2018-05-31T06:09:50.412Z,98.80
2018-05-31T06:10:50.532Z,101.50
2018-05-31T06:11:50.381Z,96.50
2018-05-31T06:12:50.394Z,104.20
2018-05-31T06:13:50.379Z,104.40
2018-05-31T06:14:50.391Z,106.50
2018-05-31T06:15:50.551Z,128.10
2018-05-31T06:16:50.456Z,123.50
2018-05-31T06:17:50.424Z,118.00
2018-05-31T06:18:50.437Z,105.30
2018-05-31T06:19:50.504Z,111.00
2018-05-31T06:20:50.626Z,105.00
2018-05-31T06:21:50.508Z,101.60
2018-05-31T06:22:50.478Z,100.40
2018-05-31T06:23:50.513Z,109.20
2018-05-31T06:24:50.524Z,107.90
2018-05-31T06:25:50.535Z,107.40
2018-05-31T06:26:50.547Z,123.00
2018-05-31T06:27:50.535Z,117.20
2018-05-31T06:28:50.613Z,116.20
2018-05-31T06:29:50.551Z,113.20
2018-05-31T06:30:50.719Z,116.90
2018-05-31T06:31:50.579Z,115.40
2018-05-31T06:32:50.614Z,118.00
2018-05-31T06:33:50.601Z,110.40
2018-05-31T06:34:50.655Z,114.50
2018-05-31T06:35:50.842Z,104.10
2018-05-31T06:36:50.641Z,113.00
2018-05-31T06:37:50.645Z,116.00
2018-05-31T06:38:50.725Z,112.70
2018-05-31T06:39:50.666Z,118.40
2018-05-31T06:40:50.719Z,117.90
2018-05-31T06:41:50.716Z,122.50
2018-05-31T06:42:50.771Z,114.50
2018-05-31T06:43:50.727Z,118.30
2018-05-31T06:44:50.731Z,120.90
2018-05-31T06:45:50.748Z,129.40
2018-05-31T06:46:50.785Z,124.70
2018-05-31T06:47:50.825Z,116.80
2018-05-31T06:48:50.794Z,116.30
2018-05-31T06:49:50.792Z,113.80
2018-05-31T06:50:50.962Z,114.90
2018-05-31T06:51:50.827Z,116.10
2018-05-31T06:52:50.848Z,108.10
2018-05-31T06:53:50.827Z,105.80
2018-05-31T06:54:50.875Z,110.50
2018-05-31T06:55:50.871Z,105.80
2018-05-31T06:56:50.856Z,102.60
2018-05-31T06:57:50.932Z,103.40
2018-05-31T06:58:50.903Z,89.70
2018-05-31T06:59:50.955Z,95.00
2018-05-31T07:00:51.085Z,89.80
2018-05-31T07:01:50.907Z,92.50
2018-05-31T07:02:50.961Z,91.90
2018-05-31T07:03:50.979Z,93.00
2018-05-31T07:04:50.997Z,96.50
2018-05-31T07:05:51.109Z,90.00
2018-05-31T07:06:50.973Z,89.20
2018-05-31T07:07:50.975Z,83.50
2018-05-31T07:08:51.040Z,88.10
2018-05-31T07:09:50.997Z,86.50
2018-05-31T07:10:51.033Z,85.50
2018-05-31T07:11:51.045Z,81.50
2018-05-31T07:12:51.056Z,86.50
2018-05-31T07:13:51.081Z,87.40
2018-05-31T07:14:51.095Z,75.10
2018-05-31T07:15:51.279Z,71.70
2018-05-31T07:16:51.139Z,72.50
2018-05-31T07:17:51.090Z,72.70
2018-05-31T07:18:51.117Z,76.20
2018-05-31T07:19:51.129Z,72.70
2018-05-31T07:20:51.334Z,72.60
2018-05-31T07:21:51.127Z,75.90
2018-05-31T07:22:51.161Z,74.50
2018-05-31T07:23:51.147Z,82.10
2018-05-31T07:24:51.167Z,78.00
2018-05-31T07:25:51.345Z,80.60
2018-05-31T07:26:51.208Z,79.60
2018-05-31T07:27:51.217Z,80.20
2018-05-31T07:28:51.227Z,83.00
2018-05-31T07:29:51.214Z,89.00
2018-05-31T07:30:51.432Z,81.80
2018-05-31T07:31:51.233Z,87.00
2018-05-31T07:32:51.269Z,78.70
2018-05-31T07:33:51.325Z,80.00
2018-05-31T07:34:51.282Z,79.20
2018-05-31T07:35:51.497Z,72.50
2018-05-31T07:36:51.290Z,77.80
2018-05-31T07:37:51.340Z,81.30
2018-05-31T07:38:51.313Z,79.70
2018-05-31T07:39:51.351Z,75.40
2018-05-31T07:40:51.527Z,79.30
2018-05-31T07:41:51.356Z,78.00
2018-05-31T07:42:51.378Z,80.60
2018-05-31T07:43:51.434Z,81.70
2018-05-31T07:44:51.402Z,81.40
2018-05-31T07:45:51.535Z,77.70
2018-05-31T07:46:51.420Z,82.30
2018-05-31T07:47:51.434Z,79.30
2018-05-31T07:48:51.445Z,78.90
2018-05-31T07:49:51.429Z,80.30
2018-05-31T07:50:51.588Z,86.00
2018-05-31T07:51:51.466Z,80.10
2018-05-31T07:52:51.506Z,79.00
2018-05-31T07:53:51.470Z,83.40
2018-05-31T07:54:51.480Z,83.20
2018-05-31T07:55:51.710Z,81.70
2018-05-31T07:56:51.504Z,75.80
2018-05-31T07:57:51.513Z,78.10
2018-05-31T07:58:51.567Z,77.60
2018-05-31T07:59:51.538Z,81.30
2018-05-31T08:00:51.723Z,78.40
2018-05-31T08:01:51.568Z,79.40
2018-05-31T08:02:51.595Z,79.30
2018-05-31T08:03:51.580Z,80.30
2018-05-31T08:04:51.632Z,80.40
2018-05-31T08:05:51.751Z,73.00
2018-05-31T08:06:51.624Z,78.40
2018-05-31T08:07:51.666Z,83.90
2018-05-31T08:08:51.674Z,81.10
2018-05-31T08:09:51.667Z,81.70
2018-05-31T08:10:51.815Z,79.90
2018-05-31T08:11:51.690Z,80.30
2018-05-31T08:12:51.679Z,81.00
2018-05-31T08:13:51.683Z,82.50
2018-05-31T08:14:51.749Z,85.60
2018-05-31T08:15:51.749Z,92.30
2018-05-31T08:16:51.896Z,92.90
2018-05-31T08:17:51.799Z,85.80
2018-05-31T08:18:51.741Z,91.30
2018-05-31T08:19:51.764Z,83.50
2018-05-31T08:20:51.762Z,86.60
2018-05-31T08:21:51.817Z,86.00
2018-05-31T08:22:51.839Z,83.80
2018-05-31T08:23:51.794Z,84.00
2018-05-31T08:24:51.846Z,85.10
2018-05-31T08:25:51.842Z,88.90
2018-05-31T08:26:51.850Z,89.70
2018-05-31T08:27:52.057Z,89.40
2018-05-31T08:28:51.849Z,82.40
2018-05-31T08:29:51.867Z,85.40
2018-05-31T08:30:51.908Z,82.50
2018-05-31T08:31:51.891Z,80.30
2018-05-31T08:32:51.892Z,79.80
2018-05-31T08:33:51.928Z,97.60
2018-05-31T08:34:51.911Z,83.90
2018-05-31T08:35:51.949Z,84.60
2018-05-31T08:36:51.976Z,89.40
2018-05-31T08:37:52.090Z,80.50
2018-05-31T08:38:51.999Z,84.30
2018-05-31T08:39:51.962Z,92.20
2018-05-31T08:40:51.974Z,90.30
2018-05-31T08:41:52.037Z,86.80
2018-05-31T08:42:51.993Z,99.40
2018-05-31T08:43:52.034Z,89.60
2018-05-31T08:44:52.058Z,82.30
2018-05-31T08:45:52.064Z,87.10
2018-05-31T08:46:52.038Z,87.00
2018-05-31T08:47:52.194Z,85.20
2018-05-31T08:48:52.060Z,88.00
2018-05-31T08:49:52.095Z,96.10
2018-05-31T08:50:52.106Z,114.00
2018-05-31T08:51:52.143Z,104.50
2018-05-31T08:52:52.249Z,107.80
2018-05-31T08:53:52.149Z,97.60
2018-05-31T08:54:52.125Z,103.30
2018-05-31T08:55:52.132Z,113.70
2018-05-31T08:56:52.184Z,108.60
2018-05-31T08:57:52.344Z,105.50
2018-05-31T08:58:52.190Z,106.80
2018-05-31T08:59:52.241Z,106.30
2018-05-31T09:00:52.184Z,101.50
2018-05-31T09:01:52.196Z,104.00
2018-05-31T09:02:52.415Z,101.50
2018-05-31T09:03:52.240Z,104.30
2018-05-31T09:04:52.294Z,105.00
2018-05-31T09:05:52.238Z,95.70
2018-05-31T09:06:52.251Z,100.30
2018-05-31T09:07:52.288Z,107.30
2018-05-31T09:08:52.322Z,105.10
2018-05-31T09:09:52.322Z,104.40
2018-05-31T09:10:52.295Z,106.40
2018-05-31T09:11:52.325Z,104.20
2018-05-31T09:12:52.487Z,98.20
2018-05-31T09:13:52.320Z,98.30
2018-05-31T09:14:52.336Z,99.60
2018-05-31T09:15:52.342Z,99.20
2018-05-31T09:16:52.395Z,103.20
2018-05-31T09:17:52.516Z,102.00
2018-05-31T09:18:52.396Z,97.40
2018-05-31T09:19:52.417Z,102.50
2018-05-31T09:20:52.395Z,100.20
2018-05-31T09:21:52.407Z,100.20
2018-05-31T09:22:52.615Z,95.30
2018-05-31T09:23:52.469Z,102.30
2018-05-31T09:24:52.435Z,108.20
2018-05-31T09:25:52.452Z,116.80
2018-05-31T09:26:52.458Z,109.20
2018-05-31T09:27:52.647Z,110.40
2018-05-31T09:28:52.483Z,114.50
2018-05-31T09:29:52.488Z,117.00
2018-05-31T09:30:52.501Z,114.00
2018-05-31T09:31:52.540Z,116.10
2018-05-31T09:32:52.693Z,117.50
2018-05-31T09:33:52.541Z,116.90
2018-05-31T09:34:52.598Z,114.90
2018-05-31T09:35:52.550Z,116.50
2018-05-31T09:36:52.619Z,119.80
2018-05-31T09:37:52.767Z,125.20
2018-05-31T09:38:52.587Z,126.60
2018-05-31T09:39:52.596Z,133.30
2018-05-31T09:40:52.606Z,114.90
2018-05-31T09:41:52.644Z,121.20
2018-05-31T09:42:52.786Z,123.90
2018-05-31T09:43:52.710Z,120.70
2018-05-31T09:44:52.646Z,119.10
2018-05-31T09:45:52.669Z,117.60
2018-05-31T09:46:52.741Z,124.60
2018-05-31T09:47:52.704Z,122.50
2018-05-31T09:48:52.869Z,120.50
2018-05-31T09:49:52.706Z,127.30
2018-05-31T09:50:52.714Z,138.10
2018-05-31T09:51:52.753Z,121.10
2018-05-31T09:52:52.750Z,123.20
2018-05-31T09:53:52.798Z,123.60
2018-05-31T09:54:52.753Z,123.80
2018-05-31T09:55:52.809Z,117.90
2018-05-31T09:56:52.805Z,116.30
2018-05-31T09:57:52.830Z,118.70
2018-05-31T09:58:52.843Z,122.90
2018-05-31T09:59:52.849Z,121.40
2018-05-31T10:00:52.848Z,124.70
2018-05-31T10:01:52.828Z,122.00
2018-05-31T10:02:52.849Z,129.50
2018-05-31T10:03:52.863Z,122.50
2018-05-31T10:04:53.057Z,125.80
2018-05-31T10:05:52.920Z,125.20
2018-05-31T10:06:52.889Z,120.50
2018-05-31T10:07:52.907Z,122.60
2018-05-31T10:08:52.962Z,124.30
2018-05-31T10:09:52.917Z,117.00
2018-05-31T10:10:52.932Z,118.90
2018-05-31T10:11:52.993Z,119.80
2018-05-31T10:12:52.978Z,110.30
2018-05-31T10:13:53.008Z,112.00
2018-05-31T10:14:53.127Z,104.80
2018-05-31T10:15:53.054Z,116.50
2018-05-31T10:16:52.991Z,116.50
2018-05-31T10:17:53.010Z,108.40
2018-05-31T10:18:53.019Z,109.50
2018-05-31T10:19:53.251Z,105.90
2018-05-31T10:20:53.070Z,114.20
2018-05-31T10:21:53.063Z,111.30
2018-05-31T10:22:53.092Z,117.10
2018-05-31T10:23:53.125Z,113.40
2018-05-31T10:24:53.197Z,112.10
2018-05-31T10:25:53.110Z,104.40
2018-05-31T10:26:53.135Z,107.60
2018-05-31T10:27:53.148Z,99.50
2018-05-31T10:28:53.132Z,101.10
2018-05-31T10:29:53.171Z,96.70
2018-05-31T10:30:53.157Z,101.80
2018-05-31T10:31:53.168Z,105.60
2018-05-31T10:32:53.190Z,102.60
2018-05-31T10:33:53.214Z,116.00
2018-05-31T10:34:53.204Z,117.00
2018-05-31T10:35:53.213Z,98.00
2018-05-31T10:36:53.223Z,92.60
2018-05-31T10:37:53.261Z,96.40
2018-05-31T10:38:53.292Z,92.80
2018-05-31T10:39:53.413Z,81.00
2018-05-31T10:40:53.316Z,86.50
2018-05-31T10:41:53.282Z,92.20
2018-05-31T10:42:53.364Z,98.70
2018-05-31T10:43:53.419Z,98.20
2018-05-31T10:44:53.493Z,94.10
2018-05-31T10:45:53.355Z,92.70
2018-05-31T10:46:53.392Z,82.10
2018-05-31T10:47:53.356Z,86.30
2018-05-31T10:48:53.409Z,88.60
2018-05-31T10:49:53.380Z,91.30
2018-05-31T10:50:53.451Z,91.50
2018-05-31T10:51:53.429Z,99.60
2018-05-31T10:52:53.457Z,97.30
2018-05-31T10:53:53.465Z,98.70
2018-05-31T10:54:53.540Z,93.60
2018-05-31T10:55:53.480Z,92.10
2018-05-31T10:56:53.534Z,89.80
2018-05-31T10:57:53.517Z,94.10
2018-05-31T10:58:53.558Z,92.00
2018-05-31T10:59:53.677Z,86.70
2018-05-31T11:00:53.541Z,85.50
2018-05-31T11:01:53.524Z,77.90
2018-05-31T11:02:53.566Z,76.20
2018-05-31T11:03:53.578Z,76.00
2018-05-31T11:04:53.714Z,68.80
2018-05-31T11:05:53.620Z,69.00
2018-05-31T11:06:53.597Z,76.30
2018-05-31T11:07:53.630Z,76.00
2018-05-31T11:08:53.614Z,77.10
2018-05-31T11:09:53.804Z,71.90
2018-05-31T11:10:53.672Z,76.30
2018-05-31T11:11:53.679Z,73.70
2018-05-31T11:12:53.692Z,64.80
2018-05-31T11:13:53.732Z,67.70
2018-05-31T11:14:53.757Z,73.70
2018-05-31T11:15:53.928Z,71.10
2018-05-31T11:16:53.743Z,80.40
2018-05-31T11:17:53.758Z,73.40
2018-05-31T11:18:53.772Z,70.00
2018-05-31T11:19:53.773Z,69.20
2018-05-31T11:20:53.843Z,71.90
2018-05-31T11:21:53.796Z,70.80
2018-05-31T11:22:53.799Z,68.70
2018-05-31T11:23:53.816Z,65.20
2018-05-31T11:24:53.895Z,66.40
2018-05-31T11:25:53.839Z,70.10
2018-05-31T11:26:53.856Z,70.60
2018-05-31T11:27:53.938Z,74.10
2018-05-31T11:28:53.882Z,79.70
2018-05-31T11:29:53.900Z,80.40
2018-05-31T11:30:54.066Z,82.20
2018-05-31T11:31:53.954Z,83.70
2018-05-31T11:32:53.941Z,83.30
2018-05-31T11:33:53.966Z,87.10
2018-05-31T11:34:53.998Z,80.00
2018-05-31T11:35:54.136Z,75.80
2018-05-31T11:36:54.012Z,73.40
2018-05-31T11:37:54.046Z,68.50
2018-05-31T11:38:54.078Z,72.20
2018-05-31T11:39:54.061Z,63.50
2018-05-31T11:40:54.064Z,70.80
2018-05-31T11:41:54.086Z,67.90
2018-05-31T11:42:54.123Z,62.70
2018-05-31T11:43:54.108Z,67.50
2018-05-31T11:44:54.145Z,68.60
2018-05-31T11:45:54.239Z,64.80
2018-05-31T11:46:54.152Z,65.70
2018-05-31T11:47:54.220Z,54.20
2018-05-31T11:48:54.193Z,59.00
2018-05-31T11:49:54.221Z,55.40
2018-05-31T11:50:54.232Z,49.60
2018-05-31T11:51:54.240Z,52.90
2018-05-31T11:52:54.268Z,56.10
2018-05-31T11:53:54.272Z,54.60
2018-05-31T11:54:54.335Z,55.60
2018-05-31T11:55:54.336Z,54.20
2018-05-31T11:56:54.375Z,52.50
2018-05-31T11:57:54.367Z,51.10
2018-05-31T11:58:54.376Z,49.50
2018-05-31T11:59:54.445Z,43.10
2018-05-31T12:00:54.391Z,41.50
2018-05-31T12:01:54.454Z,46.60
2018-05-31T12:02:54.437Z,51.90
2018-05-31T12:03:54.469Z,44.00
2018-05-31T12:04:54.505Z,50.60
2018-05-31T12:05:54.653Z,52.80
2018-05-31T12:06:54.512Z,51.70
2018-05-31T12:07:54.517Z,48.10
2018-05-31T12:08:54.534Z,49.20
2018-05-31T12:09:54.575Z,48.70
2018-05-31T12:10:54.809Z,47.40
2018-05-31T12:11:54.587Z,42.90
2018-05-31T12:12:54.660Z,46.70
2018-05-31T12:13:54.630Z,41.20
2018-05-31T12:14:54.640Z,47.00
2018-05-31T12:15:54.731Z,41.70
2018-05-31T12:16:54.852Z,37.70
2018-05-31T12:17:54.692Z,43.20
2018-05-31T12:18:54.725Z,42.30
2018-05-31T12:19:54.734Z,37.70
2018-05-31T12:20:54.747Z,37.30
2018-05-31T12:21:54.946Z,39.80
2018-05-31T12:22:54.830Z,48.70
2018-05-31T12:23:54.807Z,41.70
2018-05-31T12:24:54.899Z,41.10
2018-05-31T12:25:54.870Z,38.30
2018-05-31T12:26:54.862Z,38.00
2018-05-31T12:27:54.885Z,38.90
2018-05-31T12:28:54.929Z,34.90
2018-05-31T12:29:54.949Z,36.80
2018-05-31T12:30:54.986Z,30.10
2018-05-31T12:31:55.138Z,29.10
2018-05-31T12:32:55.055Z,27.20
2018-05-31T12:33:55.059Z,24.20
2018-05-31T12:34:55.025Z,27.30
2018-05-31T12:35:55.118Z,29.80
2018-05-31T12:36:55.213Z,25.90
2018-05-31T12:37:55.139Z,27.10
2018-05-31T12:38:55.102Z,32.80
2018-05-31T12:39:55.152Z,24.40
2018-05-31T12:40:55.145Z,21.20
2018-05-31T12:41:55.347Z,16.40
2018-05-31T12:42:55.209Z,17.20
2018-05-31T12:43:55.248Z,19.60
2018-05-31T12:44:55.230Z,18.70
2018-05-31T12:45:55.245Z,16.30
2018-05-31T12:46:55.394Z,15.10
2018-05-31T12:47:55.316Z,16.60
2018-05-31T12:48:55.333Z,17.70